Time;durP1;ratioP1;P1;durP2;ratioP2;P2;SDS_P1;SDS_P2;PMS_P1;PMS_P2;Temp;Humidity;BMP_temperature;BMP_pressure;BME280_temperature;BME280_humidity;BME280_pressure;Samples;Min_cycle;Max_cycle;Signal;HPM_P1;HPM_P2
2022/08/13 00:01:21;;;;;;;13.07;5.85;;;18.70;99.90;;;;;;4959005;29;20027;-94
2022/08/13 00:03:47;;;;;;;11.88;5.70;;;18.70;99.90;;;;;;4953450;29;20090;-93
2022/08/13 00:06:25;;;;;;;10.18;5.35;;;18.60;99.90;;;;;;4958308;29;20050;-93
2022/08/13 00:08:51;;;;;;;13.95;5.43;;;18.60;99.90;;;;;;4940777;29;20116;-93
2022/08/13 00:12:56;;;;;;;10.68;5.30;;;18.50;99.90;;;;;;4956605;29;20137;-93
2022/08/13 00:14:04;;;;;;;15.40;5.57;;;18.80;99.90;;;;;;4940441;29;20051;-93
2022/08/13 00:16:32;;;;;;;12.25;5.13;;;18.40;99.90;;;;;;4957026;29;20050;-94
2022/08/13 00:19:00;;;;;;;10.10;5.15;;;18.40;99.90;;;;;;4956134;29;20051;-94
2022/08/13 00:21:28;;;;;;;10.68;5.30;;;18.40;99.90;;;;;;4939778;29;20059;-93
2022/08/13 00:23:54;;;;;;;11.65;4.97;;;18.30;99.90;;;;;;4939931;29;20055;-94
2022/08/13 00:26:22;;;;;;;11.77;5.13;;;18.30;99.90;;;;;;4956440;29;20055;-93
2022/08/13 00:28:49;;;;;;;10.25;4.90;;;18.40;99.90;;;;;;4957011;29;20384;-93
2022/08/13 00:31:15;;;;;;;10.73;5.18;;;18.20;99.90;;;;;;4939820;29;20047;-94
2022/08/13 00:33:40;;;;;;;10.60;5.25;;;18.30;99.90;;;;;;4939149;29;20463;-94
2022/08/13 00:36:07;;;;;;;10.57;5.43;;;18.10;99.90;;;;;;4939467;29;20047;-93
2022/08/13 00:38:33;;;;;;;10.55;5.25;;;18.10;99.90;;;;;;4939206;29;20043;-94
2022/08/13 00:40:59;;;;;;;11.95;5.30;;;18.10;99.90;;;;;;4957217;29;20384;-94
2022/08/13 00:43:32;;;;;;;10.88;5.32;;;18.00;99.90;;;;;;4957047;29;20130;-93
2022/08/13 00:45:58;;;;;;;11.03;5.07;;;18.00;99.90;;;;;;4956643;29;20043;-93
2022/08/13 00:48:42;;;;;;;11.18;5.13;;;17.90;99.90;;;;;;4956582;29;20126;-93
2022/08/13 00:51:08;;;;;;;;;;;17.90;99.90;;;;;;4943412;29;20051;-93
2022/08/13 00:53:37;;;;;;;10.45;5.18;;;18.20;99.90;;;;;;4955488;28;19980;-94
2022/08/13 00:56:05;;;;;;;11.93;5.30;;;18.00;99.90;;;;;;4939739;29;20508;-92
2022/08/13 00:58:33;;;;;;;10.30;5.32;;;17.80;99.90;;;;;;4943134;29;20039;-94
2022/08/13 01:00:59;;;;;;;11.82;5.28;;;18.10;99.90;;;;;;4925114;29;20055;-93
2022/08/13 01:03:29;;;;;;;10.73;5.00;;;17.80;99.90;;;;;;4943759;29;20099;-94
2022/08/13 01:05:59;;;;;;;10.40;5.25;;;17.70;99.90;;;;;;4944679;29;20059;-93
2022/08/13 01:08:26;;;;;;;10.70;5.05;;;17.70;99.90;;;;;;4943451;29;20047;-93
2022/08/13 01:10:56;;;;;;;10.40;4.93;;;17.70;99.90;;;;;;4951855;29;20464;-92
2022/08/13 01:13:25;;;;;;;9.73;4.78;;;17.70;99.90;;;;;;4922520;29;20078;-94
2022/08/13 01:15:51;;;;;;;9.25;4.65;;;17.70;99.90;;;;;;4940352;29;20051;-94
2022/08/13 01:18:20;;;;;;;10.00;4.65;;;17.70;99.90;;;;;;4921827;29;20504;-93
2022/08/13 01:20:49;;;;;;;11.38;4.80;;;17.80;99.90;;;;;;4920645;29;20046;-93
2022/08/13 01:23:17;;;;;;;11.20;5.05;;;17.80;99.90;;;;;;4939628;29;20040;-93
2022/08/13 01:25:44;;;;;;;10.40;4.75;;;17.70;99.90;;;;;;4920448;29;20491;-92
2022/08/13 01:28:13;;;;;;;9.70;4.25;;;17.80;99.90;;;;;;4919578;29;20400;-93
2022/08/13 01:30:44;;;;;;;9.68;4.30;;;17.70;99.90;;;;;;4920383;29;20513;-92
2022/08/13 01:33:11;;;;;;;10.85;4.30;;;18.00;99.90;;;;;;4939120;29;20495;-94
2022/08/13 01:35:37;;;;;;;11.82;4.57;;;17.60;99.90;;;;;;4940727;29;20043;-93
2022/08/13 01:38:03;;;;;;;13.30;4.30;;;17.60;99.90;;;;;;4935368;29;20084;-93
2022/08/13 01:40:31;;;;;;;10.38;4.28;;;17.60;99.90;;;;;;4936908;29;20058;-93
2022/08/13 01:42:57;;;;;;;9.75;4.45;;;17.60;99.90;;;;;;4919103;29;20052;-94
2022/08/13 01:45:23;;;;;;;12.13;4.40;;;17.60;99.90;;;;;;4919852;29;20063;-94
2022/08/13 01:50:35;;;;;;;;;;;17.60;99.90;;;;;;4935196;29;20059;-93
2022/08/13 01:53:05;;;;;;;9.13;4.15;;;17.50;99.90;;;;;;4929369;29;19961;-92
2022/08/13 01:55:39;;;;;;;10.63;4.15;;;17.50;99.90;;;;;;4927893;29;20076;-94
2022/08/13 01:58:25;;;;;;;9.82;4.25;;;17.50;99.90;;;;;;4920187;29;20059;-94
2022/08/13 02:00:57;;;;;;;9.23;4.18;;;17.50;99.90;;;;;;4920354;29;20051;-94
2022/08/13 02:03:24;;;;;;;9.60;4.15;;;17.30;99.90;;;;;;4934166;29;20054;-94
2022/08/13 02:05:51;;;;;;;8.65;4.38;;;17.30;99.90;;;;;;4959171;28;20031;-93
2022/08/13 02:08:22;;;;;;;11.70;4.40;;;17.30;99.90;;;;;;4958529;28;20032;-94
2022/08/13 02:11:01;;;;;;;9.85;4.20;;;17.70;99.90;;;;;;4941603;29;20575;-94
2022/08/13 02:13:28;;;;;;;10.48;4.30;;;17.20;99.90;;;;;;4923015;29;20130;-93
2022/08/13 02:15:53;;;;;;;9.57;4.50;;;17.50;99.90;;;;;;4937180;29;20055;-93
2022/08/13 02:18:22;;;;;;;10.60;4.63;;;17.80;99.90;;;;;;4936336;29;20059;-94
2022/08/13 02:20:54;;;;;;;9.50;4.32;;;17.60;99.90;;;;;;4937029;29;20052;-93
2022/08/13 02:23:32;;;;;;;13.35;4.47;;;17.10;99.90;;;;;;4942481;29;20044;-94
2022/08/13 02:26:00;;;;;;;10.32;4.10;;;17.40;99.90;;;;;;4940852;29;20055;-93
2022/08/13 02:28:26;;;;;;;10.25;4.15;;;17.10;99.90;;;;;;4923065;29;20483;-94
2022/08/13 02:30:53;;;;;;;9.52;4.07;;;17.00;99.90;;;;;;4940372;29;20055;-93
2022/08/13 02:33:20;;;;;;;11.85;4.50;;;17.00;99.90;;;;;;4939611;29;20049;-93
2022/08/13 02:35:46;;;;;;;9.52;4.20;;;16.90;99.90;;;;;;4923183;29;20403;-94
2022/08/13 02:38:14;;;;;;;8.30;4.00;;;16.90;99.90;;;;;;4939444;29;20051;-94
2022/08/13 02:43:29;;;;;;;8.65;3.95;;;16.80;99.90;;;;;;4940613;29;20110;-94
2022/08/13 02:45:55;;;;;;;13.32;4.53;;;16.90;99.90;;;;;;4934191;29;20047;-93
2022/08/13 02:48:23;;;;;;;8.75;4.50;;;17.00;99.90;;;;;;4963789;28;20101;-93
2022/08/13 02:50:55;;;;;;;8.43;4.15;;;16.70;99.90;;;;;;4964067;28;20048;-93
2022/08/13 02:53:21;;;;;;;10.20;4.30;;;16.70;99.90;;;;;;4955066;28;20036;-94
2022/08/13 02:55:47;;;;;;;9.57;4.00;;;16.70;99.90;;;;;;4924055;29;20055;-94
2022/08/13 02:58:16;;;;;;;12.32;4.35;;;16.60;99.90;;;;;;4940176;29;20123;-94
2022/08/13 03:00:46;;;;;;;10.13;4.40;;;16.60;99.90;;;;;;4939446;29;20063;-94
2022/08/13 03:03:11;;;;;;;10.20;4.28;;;16.50;99.90;;;;;;4942360;29;20546;-94
2022/08/13 03:05:37;;;;;;;9.15;4.30;;;16.40;99.90;;;;;;4942140;29;20055;-93
2022/08/13 03:08:05;;;;;;;10.35;4.55;;;16.40;99.90;;;;;;4942101;29;20095;-94
2022/08/13 03:10:31;;;;;;;11.60;4.47;;;16.40;99.90;;;;;;4949128;29;20050;-94
2022/08/13 03:13:01;;;;;;;9.07;4.47;;;16.40;99.90;;;;;;4980639;29;20043;-95
2022/08/13 03:15:28;;;;;;;9.32;4.25;;;16.30;99.90;;;;;;4969404;29;20102;-93
2022/08/13 03:17:55;;;;;;;10.63;4.65;;;16.80;99.90;;;;;;4941558;29;20054;-94
2022/08/13 03:20:21;;;;;;;9.77;4.38;;;16.30;99.90;;;;;;4958871;29;20043;-95
2022/08/13 03:22:58;;;;;;;12.30;4.70;;;16.30;99.90;;;;;;4944226;29;20452;-94
2022/08/13 03:25:28;;;;;;;8.63;4.53;;;16.20;99.90;;;;;;4941119;29;20039;-94
2022/08/13 03:27:54;;;;;;;9.25;4.40;;;16.30;99.90;;;;;;4941470;29;20051;-93
2022/08/13 03:30:21;;;;;;;8.93;4.25;;;16.10;99.90;;;;;;4958631;29;20043;-93
2022/08/13 03:32:49;;;;;;;11.18;4.30;;;16.10;99.90;;;;;;4958166;29;20047;-94
2022/08/13 03:35:20;;;;;;;12.50;4.43;;;16.00;99.90;;;;;;4940056;29;20074;-94
2022/08/13 03:37:48;;;;;;;10.65;4.75;;;16.00;99.90;;;;;;4941250;29;20051;-93
2022/08/13 03:40:16;;;;;;;10.23;4.55;;;16.00;99.90;;;;;;4941014;29;20058;-94
2022/08/13 03:42:43;;;;;;;8.98;4.15;;;15.90;99.90;;;;;;4944144;29;20039;-94
2022/08/13 03:45:10;;;;;;;9.75;4.80;;;15.90;99.90;;;;;;4941191;29;20047;-93
2022/08/13 03:47:38;;;;;;;11.23;4.60;;;15.80;99.90;;;;;;4940480;29;20086;-94
2022/08/13 03:50:09;;;;;;;11.07;5.00;;;15.80;99.90;;;;;;4941073;29;20062;-95
2022/08/13 03:52:36;;;;;;;9.63;4.68;;;15.80;99.90;;;;;;4952837;29;20055;-96
2022/08/13 03:55:05;;;;;;;10.52;4.88;;;15.70;99.90;;;;;;4956243;29;20051;-93
2022/08/13 03:57:32;;;;;;;9.93;4.70;;;15.70;99.90;;;;;;4940752;29;20130;-94
2022/08/13 03:59:59;;;;;;;9.82;4.80;;;15.70;99.90;;;;;;4958325;29;20122;-95
2022/08/13 04:02:24;;;;;;;10.77;4.80;;;15.60;99.90;;;;;;4952109;29;20055;-94
2022/08/13 04:04:50;;;;;;;9.82;4.63;;;15.60;99.90;;;;;;4946995;29;20392;-94
2022/08/13 04:07:19;;;;;;;11.98;4.57;;;15.60;99.90;;;;;;4940490;29;20051;-94
2022/08/13 04:09:48;;;;;;;9.63;4.68;;;15.60;99.90;;;;;;4940880;29;20063;-94
2022/08/13 04:12:14;;;;;;;9.32;4.60;;;15.50;99.90;;;;;;4958275;29;20046;-94
2022/08/13 04:14:43;;;;;;;11.18;5.00;;;15.60;99.90;;;;;;4940835;29;20050;-95
2022/08/13 04:17:10;;;;;;;11.10;4.65;;;15.60;99.90;;;;;;4940318;29;20115;-95
2022/08/13 04:19:40;;;;;;;9.35;4.70;;;15.50;99.90;;;;;;4957459;29;20047;-95
2022/08/13 04:22:07;;;;;;;9.15;4.60;;;15.50;99.90;;;;;;4940518;29;20058;-94
2022/08/13 04:24:34;;;;;;;10.73;5.10;;;15.60;99.90;;;;;;4957519;29;20051;-96
2022/08/13 04:27:04;;;;;;;9.45;4.75;;;15.50;99.90;;;;;;4941021;29;20134;-94
2022/08/13 04:29:30;;;;;;;10.60;4.65;;;15.50;99.90;;;;;;4940117;29;20134;-94
2022/08/13 04:31:56;;;;;;;10.38;4.70;;;15.50;99.90;;;;;;4943474;29;20058;-95
2022/08/13 04:34:27;;;;;;;10.45;4.75;;;15.80;99.90;;;;;;4958271;29;20090;-95
2022/08/13 04:36:53;;;;;;;11.75;4.93;;;15.50;99.90;;;;;;4944174;29;20063;-94
2022/08/13 04:39:19;;;;;;;10.38;5.10;;;15.50;99.90;;;;;;4941312;29;20112;-96
2022/08/13 04:41:45;;;;;;;10.40;4.80;;;15.50;99.90;;;;;;4957587;29;20126;-95
2022/08/13 04:44:11;;;;;;;10.27;4.90;;;15.50;99.90;;;;;;4957462;29;20066;-95
2022/08/13 04:46:38;;;;;;;10.18;4.70;;;15.50;99.90;;;;;;4966120;28;20081;-94
2022/08/13 04:49:05;;;;;;;10.32;4.75;;;15.50;99.90;;;;;;4962402;28;20058;-95
2022/08/13 04:51:34;;;;;;;11.50;4.57;;;15.60;99.90;;;;;;4951491;29;20043;-94
2022/08/13 04:53:59;;;;;;;9.07;4.57;;;15.60;99.90;;;;;;4957477;29;20086;-95
2022/08/13 04:56:25;;;;;;;9.80;4.80;;;15.60;99.90;;;;;;4956844;29;20550;-94
2022/08/13 04:58:51;;;;;;;10.07;5.05;;;16.00;99.90;;;;;;4939943;29;20047;-95
2022/08/13 05:01:16;;;;;;;11.25;4.60;;;15.70;99.90;;;;;;4941088;29;20050;-95
2022/08/13 05:03:42;;;;;;;9.32;4.80;;;15.70;99.90;;;;;;4946985;29;20039;-95
2022/08/13 05:06:18;;;;;;;11.40;5.10;;;15.90;99.90;;;;;;4940070;29;20089;-94
2022/08/13 05:08:53;;;;;;;10.82;4.63;;;16.30;99.90;;;;;;4956840;29;20441;-94
2022/08/13 05:11:19;;;;;;;9.75;4.65;;;15.90;99.90;;;;;;4961404;29;20054;-94
2022/08/13 05:13:45;;;;;;;10.15;5.10;;;16.00;99.90;;;;;;4958385;29;20051;-95
2022/08/13 05:16:17;;;;;;;9.95;5.10;;;16.10;99.90;;;;;;4956768;29;20047;-94
2022/08/13 05:18:45;;;;;;;11.75;5.00;;;16.10;99.90;;;;;;4939570;29;20098;-94
2022/08/13 05:21:12;;;;;;;13.15;5.18;;;16.20;99.90;;;;;;4956414;29;20058;-95
2022/08/13 05:23:40;;;;;;;11.27;5.57;;;16.30;99.90;;;;;;4939274;29;20047;-95
2022/08/13 05:26:07;;;;;;;9.57;5.10;;;16.30;99.90;;;;;;4939351;29;20408;-95
2022/08/13 05:28:34;;;;;;;9.82;5.18;;;16.40;99.90;;;;;;4955674;29;20074;-94
2022/08/13 05:30:59;;;;;;;9.25;4.80;;;16.50;99.90;;;;;;4938889;29;20101;-95
2022/08/13 05:33:27;;;;;;;10.35;4.88;;;16.60;99.90;;;;;;4939158;29;20114;-94
2022/08/13 05:35:58;;;;;;;10.90;4.70;;;16.70;99.90;;;;;;4956305;29;20444;-93
2022/08/13 05:38:27;;;;;;;10.88;4.88;;;16.80;99.90;;;;;;4955978;29;20087;-95
2022/08/13 05:40:56;;;;;;;9.55;4.78;;;16.90;99.90;;;;;;4938931;29;20134;-94
2022/08/13 05:43:24;;;;;;;12.05;4.55;;;17.00;99.90;;;;;;4938332;29;20130;-93
2022/08/13 05:45:58;;;;;;;9.38;4.35;;;17.00;99.90;;;;;;4938372;29;20051;-93
2022/08/13 05:48:32;;;;;;;9.57;4.90;;;17.10;99.90;;;;;;4938721;29;20134;-93
2022/08/13 05:51:00;;;;;;;9.85;4.38;;;17.20;99.90;;;;;;4969112;29;20058;-81
2022/08/13 05:53:27;;;;;;;9.70;4.15;;;17.40;99.90;;;;;;4955099;29;20047;-79
2022/08/13 05:55:54;;;;;;;8.98;4.45;;;17.40;99.90;;;;;;4936625;29;20129;-78
2022/08/13 05:58:21;;;;;;;9.55;4.45;;;17.60;99.90;;;;;;4953725;28;20083;-77
2022/08/13 06:03:31;;;;;;;9.23;4.15;;;17.80;99.90;;;;;;4953481;29;20059;-78
2022/08/13 06:05:59;;;;;;;11.65;4.18;;;18.00;99.90;;;;;;4937503;29;20043;-78
2022/08/13 06:08:35;;;;;;;9.10;3.70;;;18.10;99.90;;;;;;4954223;29;20059;-79
2022/08/13 06:11:08;;;;;;;8.00;3.80;;;18.20;99.90;;;;;;4953579;29;20082;-77
2022/08/13 06:13:40;;;;;;;8.95;3.90;;;18.40;99.90;;;;;;4953749;29;20255;-78
2022/08/13 06:16:08;;;;;;;9.75;3.75;;;18.50;99.90;;;;;;4936898;29;20510;-78
2022/08/13 06:18:36;;;;;;;9.95;3.65;;;18.60;99.90;;;;;;4937259;29;20047;-78
2022/08/13 06:21:10;;;;;;;9.90;3.40;;;18.70;99.90;;;;;;4954342;29;20051;-80
2022/08/13 06:23:38;;;;;;;8.40;3.60;;;18.80;99.90;;;;;;4947808;29;20114;-81
2022/08/13 06:26:06;;;;;;;10.90;4.05;;;18.90;99.90;;;;;;4937002;29;20126;-81
2022/08/13 06:28:32;;;;;;;9.15;3.63;;;19.10;99.90;;;;;;4936544;29;20058;-81
2022/08/13 06:31:02;;;;;;;8.07;3.63;;;19.10;99.90;;;;;;4936044;29;20059;-81
2022/08/13 06:33:29;;;;;;;8.82;3.40;;;19.90;99.90;;;;;;4936839;29;20186;-81
2022/08/13 06:36:01;;;;;;;12.13;3.88;;;19.30;99.90;;;;;;4936776;29;20047;-80
2022/08/13 06:38:42;;;;;;;10.10;3.85;;;19.30;99.90;;;;;;4953350;29;20074;-80
2022/08/13 06:41:10;;;;;;;8.35;4.05;;;19.50;99.90;;;;;;4937502;29;20051;-81
2022/08/13 06:43:41;;;;;;;11.10;3.80;;;19.60;99.90;;;;;;4953894;29;20047;-80
2022/08/13 06:46:08;;;;;;;11.02;3.80;;;19.70;99.90;;;;;;4953661;29;20057;-80
2022/08/13 06:48:35;;;;;;;8.27;3.78;;;19.70;99.90;;;;;;4936774;29;20627;-80
2022/08/13 06:51:06;;;;;;;8.68;3.78;;;20.00;99.90;;;;;;4936948;29;20069;-81
2022/08/13 06:53:35;;;;;;;8.40;3.45;;;20.00;99.90;;;;;;4936259;29;20043;-81
2022/08/13 06:56:04;;;;;;;9.27;3.60;;;20.10;99.90;;;;;;4937268;29;20043;-81
2022/08/13 06:58:30;;;;;;;8.23;3.25;;;20.30;99.90;;;;;;4954053;29;20079;-80
2022/08/13 07:00:56;;;;;;;8.85;3.67;;;20.40;99.90;;;;;;4939272;29;20396;-82
2022/08/13 07:03:27;;;;;;;7.70;3.40;;;20.50;99.90;;;;;;4955425;29;20047;-79
2022/08/13 07:05:56;;;;;;;11.13;3.47;;;20.80;99.90;;;;;;4936467;29;20043;-81
2022/08/13 07:08:22;;;;;;;9.52;3.50;;;20.80;99.90;;;;;;4953780;29;20051;-80
2022/08/13 07:10:51;;;;;;;8.10;3.45;;;20.90;99.90;;;;;;4955484;28;20075;-80
2022/08/13 07:13:20;;;;;;;9.02;3.50;;;21.10;99.90;;;;;;4956011;29;20087;-80
2022/08/13 07:15:48;;;;;;;8.98;3.40;;;21.30;99.90;;;;;;4940466;29;20451;-80
2022/08/13 07:18:14;;;;;;;7.50;3.30;;;21.40;99.90;;;;;;4957530;29;20091;-79
2022/08/13 07:20:41;;;;;;;9.27;3.40;;;21.50;99.90;;;;;;4957728;29;20074;-80
2022/08/13 07:23:07;;;;;;;7.50;3.10;;;21.70;99.90;;;;;;4957618;29;20049;-80
2022/08/13 07:25:35;;;;;;;8.48;3.13;;;21.90;99.90;;;;;;4940450;29;20047;-80
2022/08/13 07:28:02;;;;;;;9.32;3.55;;;22.10;99.90;;;;;;4939332;29;20530;-80
2022/08/13 07:30:28;;;;;;;7.22;2.92;;;22.20;99.90;;;;;;4957635;29;20044;-80
2022/08/13 07:32:54;;;;;;;7.50;2.90;;;22.40;99.90;;;;;;4939559;29;20062;-80
2022/08/13 07:35:19;;;;;;;8.07;3.03;;;22.60;99.90;;;;;;4939186;29;20126;-80
2022/08/13 07:37:49;;;;;;;8.50;3.00;;;22.70;99.90;;;;;;4957070;29;20554;-79
2022/08/13 07:40:16;;;;;;;7.40;2.83;;;22.90;99.90;;;;;;4956864;29;20348;-81
2022/08/13 07:42:43;;;;;;;8.57;2.70;;;23.10;99.90;;;;;;4938984;29;20047;-80
2022/08/13 07:45:10;;;;;;;9.75;3.35;;;23.30;99.90;;;;;;4936956;29;20499;-80
2022/08/13 07:47:39;;;;;;;7.03;2.70;;;23.40;99.90;;;;;;4955536;29;20047;-80
2022/08/13 07:50:11;;;;;;;8.07;2.80;;;23.80;99.90;;;;;;4956775;29;20399;-80
2022/08/13 07:52:38;;;;;;;12.30;2.88;;;23.70;99.90;;;;;;4939265;29;20047;-80
2022/08/13 07:55:05;;;;;;;7.70;2.80;;;23.90;99.90;;;;;;4955691;29;20082;-80
2022/08/13 07:57:32;;;;;;;7.97;2.70;;;24.10;99.90;;;;;;4938751;29;20039;-80
2022/08/13 07:59:58;;;;;;;7.45;2.60;;;24.30;99.90;;;;;;4938954;29;20425;-80
2022/08/13 08:02:25;;;;;;;7.03;2.72;;;24.30;99.90;;;;;;4955510;29;20043;-80
2022/08/13 08:04:55;;;;;;;7.85;2.70;;;24.60;99.90;;;;;;4938998;29;20043;-80
2022/08/13 08:07:22;;;;;;;8.77;2.60;;;25.00;99.90;;;;;;4956050;29;20043;-80
2022/08/13 08:09:50;;;;;;;9.85;2.63;;;24.90;99.90;;;;;;4955177;29;20102;-80
2022/08/13 08:15:08;;;;;;;6.20;2.30;;;25.20;99.30;;;;;;4956167;29;20142;-80
2022/08/13 08:17:34;;;;;;;8.60;2.60;;;25.40;98.20;;;;;;4954996;29;20051;-80
2022/08/13 08:20:02;;;;;;;7.68;2.88;;;25.50;98.40;;;;;;4938790;29;20074;-80
2022/08/13 08:22:28;;;;;;;6.65;2.70;;;25.50;97.80;;;;;;4938253;29;20047;-81
2022/08/13 08:24:54;;;;;;;8.75;2.70;;;25.80;97.10;;;;;;4955335;29;20055;-81
2022/08/13 08:27:20;;;;;;;9.05;2.70;;;25.90;96.60;;;;;;4956035;29;20051;-86
2022/08/13 08:29:48;;;;;;;5.63;2.38;;;26.00;96.50;;;;;;4938615;29;20427;-85
2022/08/13 08:32:14;;;;;;;6.93;2.70;;;26.20;96.10;;;;;;4938513;29;20066;-86
2022/08/13 08:34:45;;;;;;;7.13;2.58;;;26.20;95.70;;;;;;4956338;29;20074;-85
2022/08/13 08:43:10;;;;;;;9.10;2.60;;;26.50;94.30;;;;;;4907201;29;20133;-85
2022/08/13 08:45:36;;;;;;;7.45;2.60;;;26.70;94.20;;;;;;4937366;29;20047;-85
2022/08/13 08:48:03;;;;;;;10.18;2.63;;;26.70;93.70;;;;;;4938776;29;20043;-85
2022/08/13 08:50:29;;;;;;;8.00;2.50;;;26.90;92.80;;;;;;4955827;29;20373;-85
2022/08/13 08:55:43;;;;;;;6.97;2.58;;;27.00;92.20;;;;;;4960528;29;20035;-84
2022/08/13 08:58:11;;;;;;;7.47;2.40;;;27.20;91.80;;;;;;4979419;28;20051;-84
2022/08/13 09:00:39;;;;;;;8.20;2.50;;;27.40;91.70;;;;;;4963562;28;20051;-84
2022/08/13 09:03:07;;;;;;;9.35;2.75;;;27.50;91.40;;;;;;4940714;29;20058;-85
2022/08/13 09:05:33;;;;;;;8.18;2.60;;;27.50;90.50;;;;;;4954995;29;20052;-85
2022/08/13 09:08:01;;;;;;;8.10;2.60;;;27.70;90.90;;;;;;4955306;29;20046;-85
2022/08/13 09:10:27;;;;;;;8.57;2.50;;;27.60;90.70;;;;;;4937940;29;20074;-85
2022/08/13 09:12:52;;;;;;;9.63;2.50;;;27.90;90.60;;;;;;4937367;29;20133;-84
2022/08/13 09:15:21;;;;;;;8.68;2.80;;;28.10;90.30;;;;;;4955025;29;20051;-85
2022/08/13 09:17:49;;;;;;;7.75;2.38;;;28.20;89.50;;;;;;4937948;29;20403;-85
2022/08/13 09:20:24;;;;;;;8.77;2.60;;;28.30;88.90;;;;;;4953967;29;20130;-85
2022/08/13 09:23:01;;;;;;;6.63;2.50;;;28.30;88.30;;;;;;4937608;29;20126;-85
2022/08/13 09:25:27;;;;;;;6.90;2.50;;;28.40;87.80;;;;;;4954554;29;20079;-85
2022/08/13 09:27:53;;;;;;;6.90;2.45;;;28.50;87.80;;;;;;4936978;29;20066;-85
2022/08/13 09:30:19;;;;;;;6.75;2.63;;;28.60;87.30;;;;;;4937300;29;20047;-85
2022/08/13 09:32:48;;;;;;;8.52;2.70;;;28.80;86.60;;;;;;4954221;28;20039;-85
2022/08/13 09:35:14;;;;;;;8.00;2.60;;;28.90;85.80;;;;;;4936385;29;20047;-84
2022/08/13 09:37:40;;;;;;;7.50;2.53;;;29.10;85.40;;;;;;4940971;29;20054;-85
2022/08/13 09:40:12;;;;;;;6.30;2.38;;;29.10;84.30;;;;;;4938808;29;20142;-85
2022/08/13 09:42:57;;;;;;;6.95;2.40;;;29.20;83.20;;;;;;4937260;29;20138;-84
2022/08/13 09:45:27;;;;;;;6.93;2.40;;;29.20;84.00;;;;;;4953826;29;20070;-84
2022/08/13 09:47:54;;;;;;;6.85;2.55;;;29.40;83.30;;;;;;4954028;29;20050;-85
2022/08/13 09:50:23;;;;;;;6.60;2.50;;;29.60;82.40;;;;;;4936913;29;20139;-85
2022/08/13 09:52:52;;;;;;;6.20;2.40;;;29.50;82.20;;;;;;4937158;29;20451;-85
2022/08/13 09:55:26;;;;;;;8.43;2.70;;;29.60;81.20;;;;;;4935858;29;20057;-85
2022/08/13 09:58:00;;;;;;;6.80;2.35;;;29.70;80.60;;;;;;4954299;29;20043;-85
2022/08/13 10:00:28;;;;;;;6.38;2.50;;;29.90;79.90;;;;;;4954304;29;20058;-85
2022/08/13 10:03:00;;;;;;;8.63;2.60;;;29.90;79.40;;;;;;4936173;29;20055;-83
2022/08/13 10:05:32;;;;;;;6.10;2.50;;;30.00;79.00;;;;;;4954406;29;20058;-82
2022/08/13 10:08:02;;;;;;;10.07;3.10;;;30.00;77.80;;;;;;4936328;29;20039;-83
2022/08/13 10:10:29;;;;;;;7.20;2.35;;;29.90;78.00;;;;;;4952675;29;20043;-83
2022/08/13 10:12:56;;;;;;;6.82;2.35;;;29.90;78.10;;;;;;4936240;29;20051;-84
2022/08/13 10:15:22;;;;;;;7.97;2.63;;;30.20;77.60;;;;;;4953235;29;20058;-83
2022/08/13 10:17:55;;;;;;;6.75;2.40;;;30.30;77.80;;;;;;4954200;29;20054;-83
2022/08/13 10:20:29;;;;;;;9.07;2.30;;;30.50;77.30;;;;;;4936905;29;20047;-83
2022/08/13 10:22:56;;;;;;;8.50;2.40;;;30.80;76.80;;;;;;4953241;29;20118;-83
2022/08/13 10:25:23;;;;;;;5.72;2.30;;;30.80;75.40;;;;;;4936728;29;20051;-83
2022/08/13 10:27:50;;;;;;;6.90;2.65;;;30.90;75.50;;;;;;4937086;29;20109;-83
2022/08/13 10:30:17;;;;;;;6.57;2.50;;;30.80;72.40;;;;;;4935813;29;20058;-83
2022/08/13 10:32:43;;;;;;;7.10;2.47;;;30.70;74.20;;;;;;4954414;29;20050;-83
2022/08/13 10:35:09;;;;;;;5.88;2.20;;;30.80;74.60;;;;;;4936984;29;20039;-83
2022/08/13 10:37:43;;;;;;;6.75;2.50;;;30.90;74.40;;;;;;4935950;29;20559;-83
2022/08/13 10:40:09;;;;;;;7.50;2.60;;;30.80;74.00;;;;;;4938524;29;20027;-83
2022/08/13 10:42:35;;;;;;;6.28;2.40;;;30.90;73.50;;;;;;4936266;29;20524;-84
2022/08/13 10:45:01;;;;;;;6.85;2.38;;;31.20;73.80;;;;;;4954565;28;20407;-83
2022/08/13 10:47:27;;;;;;;6.47;2.40;;;31.20;73.60;;;;;;4939853;29;20046;-83
2022/08/13 10:49:52;;;;;;;6.38;2.30;;;31.30;72.90;;;;;;4956755;29;20054;-84
2022/08/13 10:52:20;;;;;;;6.60;2.33;;;31.30;72.50;;;;;;4939163;29;20407;-84
2022/08/13 10:54:46;;;;;;;6.57;2.50;;;31.30;72.80;;;;;;4939865;29;20129;-83
2022/08/13 10:57:12;;;;;;;7.97;2.50;;;31.40;72.40;;;;;;4957829;29;20047;-80
2022/08/13 10:59:43;;;;;;;5.97;2.35;;;31.60;72.00;;;;;;4956458;29;20134;-82
2022/08/13 11:02:10;;;;;;;6.28;2.45;;;31.50;72.40;;;;;;4957600;29;20051;-82
2022/08/13 11:04:39;;;;;;;5.78;2.58;;;31.60;72.40;;;;;;4939125;29;20043;-82
2022/08/13 11:07:10;;;;;;;6.53;2.35;;;31.80;72.00;;;;;;4940253;29;20043;-83
2022/08/13 11:09:37;;;;;;;7.00;2.50;;;31.80;71.50;;;;;;4939221;29;20039;-83
2022/08/13 11:12:03;;;;;;;8.13;2.40;;;32.10;71.60;;;;;;4938940;29;20031;-82
2022/08/13 11:14:29;;;;;;;7.32;2.60;;;32.00;70.70;;;;;;4956447;29;20053;-83
2022/08/13 11:16:58;;;;;;;8.50;2.35;;;31.90;70.30;;;;;;4956775;29;20067;-82
2022/08/13 11:19:28;;;;;;;9.07;2.50;;;32.20;70.70;;;;;;4939316;29;20047;-84
2022/08/13 11:21:53;;;;;;;6.63;2.25;;;32.30;69.70;;;;;;4937669;29;20143;-83
2022/08/13 11:24:19;;;;;;;6.85;2.80;;;32.30;69.90;;;;;;4939733;29;20130;-84
2022/08/13 11:26:47;;;;;;;9.55;2.58;;;32.40;69.30;;;;;;4939025;29;20039;-84
2022/08/13 11:29:13;;;;;;;9.15;2.50;;;32.50;69.60;;;;;;4940172;29;20057;-84
2022/08/13 11:31:39;;;;;;;6.85;2.60;;;32.40;69.60;;;;;;4939844;29;20134;-84
2022/08/13 11:34:04;;;;;;;7.72;2.60;;;32.50;69.30;;;;;;4939119;29;20133;-84
2022/08/13 11:36:30;;;;;;;6.40;2.40;;;32.60;69.00;;;;;;4939113;29;20075;-83
2022/08/13 11:38:56;;;;;;;6.30;2.40;;;32.90;68.90;;;;;;4957118;29;20043;-84
2022/08/13 11:41:22;;;;;;;6.43;2.50;;;32.90;69.00;;;;;;4938648;29;20484;-83
2022/08/13 11:43:49;;;;;;;9.18;2.80;;;33.00;68.50;;;;;;4956965;29;20039;-83
2022/08/13 11:46:15;;;;;;;6.68;2.58;;;33.00;67.80;;;;;;4956688;29;20051;-84
2022/08/13 11:48:44;;;;;;;6.93;2.40;;;32.90;67.50;;;;;;4938197;29;20075;-84
2022/08/13 11:51:10;;;;;;;8.55;2.40;;;32.70;67.00;;;;;;4938828;29;20043;-84
2022/08/13 11:53:36;;;;;;;6.63;2.70;;;32.90;68.00;;;;;;4956268;29;20043;-84
2022/08/13 11:56:02;;;;;;;6.68;2.50;;;32.90;67.30;;;;;;4937776;29;20055;-83
2022/08/13 11:58:27;;;;;;;7.90;2.72;;;33.00;67.00;;;;;;4938341;29;20050;-84
2022/08/13 12:00:54;;;;;;;8.35;2.70;;;32.90;66.90;;;;;;4942548;29;20059;-84
2022/08/13 12:03:20;;;;;;;6.38;2.55;;;32.90;66.70;;;;;;4964266;29;20090;-84
2022/08/13 12:05:46;;;;;;;9.30;2.40;;;32.50;67.00;;;;;;4940671;29;20051;-84
2022/08/13 12:08:13;;;;;;;10.15;2.88;;;31.80;67.10;;;;;;4955806;29;20053;-84
2022/08/13 12:10:39;;;;;;;7.70;2.58;;;31.80;67.80;;;;;;4939011;29;20043;-84
2022/08/13 12:13:04;;;;;;;6.28;2.67;;;31.80;67.30;;;;;;4938983;29;20063;-84
2022/08/13 12:15:30;;;;;;;9.48;2.75;;;32.40;67.30;;;;;;4955019;29;20130;-84
2022/08/13 12:17:56;;;;;;;6.68;2.55;;;32.70;67.70;;;;;;4956060;29;20114;-84
2022/08/13 12:20:23;;;;;;;8.00;2.72;;;32.90;67.40;;;;;;4922187;29;20448;-84
2022/08/13 12:22:51;;;;;;;6.03;2.40;;;33.20;67.70;;;;;;4955388;29;20069;-83
2022/08/13 12:25:16;;;;;;;7.57;2.70;;;33.50;67.30;;;;;;4938560;29;20134;-83
2022/08/13 12:27:42;;;;;;;11.50;2.70;;;33.70;66.20;;;;;;4939054;29;20129;-83
2022/08/13 12:30:08;;;;;;;9.07;2.70;;;33.70;65.70;;;;;;4937222;29;20048;-82
2022/08/13 12:32:34;;;;;;;7.00;2.60;;;33.80;64.90;;;;;;4955574;29;20054;-83
2022/08/13 12:35:00;;;;;;;6.90;2.72;;;33.80;64.90;;;;;;4938248;29;20039;-82
2022/08/13 12:37:26;;;;;;;6.68;2.58;;;34.00;64.60;;;;;;4936672;29;20142;-83
2022/08/13 12:39:52;;;;;;;6.35;2.60;;;33.70;64.30;;;;;;4938473;29;20051;-82
2022/08/13 12:42:19;;;;;;;7.63;2.65;;;33.80;64.40;;;;;;4955937;29;20051;-83
2022/08/13 12:44:45;;;;;;;9.27;2.70;;;34.00;63.80;;;;;;4938305;29;20098;-83
2022/08/13 12:47:10;;;;;;;7.88;2.80;;;34.20;63.90;;;;;;4938645;29;20059;-84
2022/08/13 12:49:36;;;;;;;5.93;2.50;;;34.20;64.20;;;;;;4955857;29;20046;-83
2022/08/13 12:52:02;;;;;;;6.00;2.58;;;34.30;63.90;;;;;;4937952;29;20054;-83
2022/08/13 12:54:28;;;;;;;7.97;2.50;;;34.30;64.10;;;;;;4955276;29;20389;-83
2022/08/13 12:56:54;;;;;;;7.22;2.58;;;34.50;64.00;;;;;;4938283;29;20050;-83
2022/08/13 12:59:19;;;;;;;8.25;3.00;;;34.80;63.60;;;;;;4937466;29;20054;-83
2022/08/13 13:01:51;;;;;;;6.22;2.60;;;34.80;63.10;;;;;;4955467;29;20047;-84
2022/08/13 13:04:17;;;;;;;7.43;3.22;;;34.90;63.10;;;;;;4937636;29;20055;-83
2022/08/13 13:06:43;;;;;;;7.32;2.58;;;34.70;62.50;;;;;;4938642;29;20155;-84